Terminal Aerodrome Forecast
Issued by NWS

Home | Current Version | Previous Version | Text Only | Print | Product List | Glossary On
Versions: 1 2 3 4 5 6 7 8 9 10 11 12 13 14
975
FTUS41 KCAR 251720
TAFPQI
TAF
KPQI 251720Z 2518/2618 21010KT P6SM BKN070
     FM252100 20007KT P6SM VCSH OVC035
     FM260000 16006KT P6SM OVC035
     FM260200 16009KT P6SM OVC015
     FM260300 16010KT 3SM -RA OVC022
     FM260600 14010KT 2SM -RA BR OVC008
     FM261400 16012KT 3SM -RA BR OVC005=

USA.gov is the U.S. government's official web portal to all federal, state and local government web resources and services.